sensor_id;sensor_type;location;lat;lon;timestamp;pressure;altitude;pressure_sealevel;temperature;humidity
42067;BME280;27734;47.028;28.820;2023-06-22T00:01:42;100708.80;;;19.68;74.03
42067;BME280;27734;47.028;28.820;2023-06-22T00:04:14;100710.58;;;19.64;74.23
42067;BME280;27734;47.028;28.820;2023-06-22T00:06:45;100714.11;;;19.62;74.81
42067;BME280;27734;47.028;28.820;2023-06-22T00:09:16;100716.77;;;19.58;74.38
42067;BME280;27734;47.028;28.820;2023-06-22T00:11:47;100723.86;;;19.55;75.49
42067;BME280;27734;47.028;28.820;2023-06-22T00:14:19;100729.18;;;19.52;75.78
42067;BME280;27734;47.028;28.820;2023-06-22T00:16:50;100726.50;;;19.46;75.41
42067;BME280;27734;47.028;28.820;2023-06-22T00:19:24;100730.93;;;19.40;75.94
42067;BME280;27734;47.028;28.820;2023-06-22T00:21:56;100724.72;;;19.35;76.09
42067;BME280;27734;47.028;28.820;2023-06-22T00:24:30;100718.47;;;19.30;76.62
42067;BME280;27734;47.028;28.820;2023-06-22T00:27:05;100715.80;;;19.26;76.33
42067;BME280;27734;47.028;28.820;2023-06-22T00:29:42;100719.35;;;19.23;76.29
42067;BME280;27734;47.028;28.820;2023-06-22T00:32:13;100715.77;;;19.21;75.92
42067;BME280;27734;47.028;28.820;2023-06-22T00:34:45;100718.44;;;19.21;76.25
42067;BME280;27734;47.028;28.820;2023-06-22T00:37:16;100714.02;;;19.20;76.65
42067;BME280;27734;47.028;28.820;2023-06-22T00:39:47;100714.00;;;19.17;76.97
42067;BME280;27734;47.028;28.820;2023-06-22T00:42:18;100713.99;;;19.14;77.08
42067;BME280;27734;47.028;28.820;2023-06-22T00:44:50;100717.52;;;19.10;77.26
42067;BME280;27734;47.028;28.820;2023-06-22T00:47:21;100718.37;;;19.07;76.84
42067;BME280;27734;47.028;28.820;2023-06-22T00:49:53;100722.81;;;19.07;76.58
42067;BME280;27734;47.028;28.820;2023-06-22T00:52:26;100729.01;;;19.06;77.17
42067;BME280;27734;47.028;28.820;2023-06-22T00:55:00;100725.46;;;19.03;77.62
42067;BME280;27734;47.028;28.820;2023-06-22T00:57:33;100728.13;;;19.03;77.21
42067;BME280;27734;47.028;28.820;2023-06-22T01:00:09;100721.02;;;19.02;77.60
42067;BME280;27734;47.028;28.820;2023-06-22T01:02:46;100722.80;;;19.03;78.01
42067;BME280;27734;47.028;28.820;2023-06-22T01:05:22;100718.36;;;19.02;77.89
42067;BME280;27734;47.028;28.820;2023-06-22T01:08:15;100721.02;;;19.04;78.14
42067;BME280;27734;47.028;28.820;2023-06-22T01:10:52;100719.27;;;19.03;77.80
42067;BME280;27734;47.028;28.820;2023-06-22T01:13:31;100723.66;;;19.01;78.21
42067;BME280;27734;47.028;28.820;2023-06-22T01:16:05;100725.43;;;18.97;77.80
42067;BME280;27734;47.028;28.820;2023-06-22T01:18:42;100728.06;;;18.93;78.11
42067;BME280;27734;47.028;28.820;2023-06-22T01:21:17;100728.06;;;18.91;78.28
42067;BME280;27734;47.028;28.820;2023-06-22T01:24:00;100733.36;;;18.88;79.06
42067;BME280;27734;47.028;28.820;2023-06-22T01:26:38;100740.40;;;18.83;78.68
42067;BME280;27734;47.028;28.820;2023-06-22T01:29:12;100736.84;;;18.79;78.90
42067;BME280;27734;47.028;28.820;2023-06-22T01:31:46;100741.23;;;18.77;78.88
42067;BME280;27734;47.028;28.820;2023-06-22T01:34:19;100738.58;;;18.76;79.02
42067;BME280;27734;47.028;28.820;2023-06-22T01:36:51;100741.22;;;18.74;79.29
42067;BME280;27734;47.028;28.820;2023-06-22T01:39:23;100744.77;;;18.72;79.48
42067;BME280;27734;47.028;28.820;2023-06-22T01:41:58;100742.97;;;18.69;79.31
42067;BME280;27734;47.028;28.820;2023-06-22T01:44:30;100746.51;;;18.69;79.88
42067;BME280;27734;47.028;28.820;2023-06-22T01:47:03;100744.75;;;18.68;79.66
42067;BME280;27734;47.028;28.820;2023-06-22T01:49:35;100747.40;;;18.67;79.38
42067;BME280;27734;47.028;28.820;2023-06-22T01:52:08;100746.47;;;18.63;79.44
42067;BME280;27734;47.028;28.820;2023-06-22T01:54:41;100747.38;;;18.62;80.28
42067;BME280;27734;47.028;28.820;2023-06-22T01:57:12;100747.34;;;18.59;80.59
42067;BME280;27734;47.028;28.820;2023-06-22T01:59:51;100743.77;;;18.57;80.73
42067;BME280;27734;47.028;28.820;2023-06-22T02:02:27;100745.53;;;18.55;80.69
42067;BME280;27734;47.028;28.820;2023-06-22T02:05:05;100752.63;;;18.53;80.49
42067;BME280;27734;47.028;28.820;2023-06-22T02:07:44;100753.47;;;18.50;80.56
42067;BME280;27734;47.028;28.820;2023-06-22T02:10:19;100758.79;;;18.50;81.40
42067;BME280;27734;47.028;28.820;2023-06-22T02:12:51;100751.69;;;18.49;81.22
42067;BME280;27734;47.028;28.820;2023-06-22T02:15:23;100755.25;;;18.50;81.55
42067;BME280;27734;47.028;28.820;2023-06-22T02:17:56;100762.31;;;18.49;80.92
42067;BME280;27734;47.028;28.820;2023-06-22T02:20:28;100758.79;;;18.50;81.19
42067;BME280;27734;47.028;28.820;2023-06-22T02:23:00;100765.91;;;18.55;81.38
42067;BME280;27734;47.028;28.820;2023-06-22T02:25:31;100769.47;;;18.57;81.28
42067;BME280;27734;47.028;28.820;2023-06-22T02:28:03;100758.84;;;18.58;81.65
42067;BME280;27734;47.028;28.820;2023-06-22T02:30:34;100758.86;;;18.60;81.24
42067;BME280;27734;47.028;28.820;2023-06-22T02:33:06;100756.22;;;18.63;81.45
42067;BME280;27734;47.028;28.820;2023-06-22T02:35:37;100755.34;;;18.62;81.36
42067;BME280;27734;47.028;28.820;2023-06-22T02:38:09;100760.64;;;18.61;81.71
42067;BME280;27734;47.028;28.820;2023-06-22T02:40:41;100757.98;;;18.61;81.60
42067;BME280;27734;47.028;28.820;2023-06-22T02:43:15;100759.73;;;18.60;82.03
42067;BME280;27734;47.028;28.820;2023-06-22T02:45:47;100750.02;;;18.61;82.01
42067;BME280;27734;47.028;28.820;2023-06-22T02:48:19;100761.52;;;18.61;81.73
42067;BME280;27734;47.028;28.820;2023-06-22T02:50:51;100771.30;;;18.64;82.23
42067;BME280;27734;47.028;28.820;2023-06-22T02:53:22;100775.72;;;18.66;81.94
42067;BME280;27734;47.028;28.820;2023-06-22T02:55:54;100779.30;;;18.68;82.13
42067;BME280;27734;47.028;28.820;2023-06-22T02:58:25;100783.70;;;18.68;82.48
42067;BME280;27734;47.028;28.820;2023-06-22T03:00:56;100785.48;;;18.67;82.15
42067;BME280;27734;47.028;28.820;2023-06-22T03:03:34;100781.95;;;18.67;82.56
42067;BME280;27734;47.028;28.820;2023-06-22T03:06:06;100785.48;;;18.66;83.04
42067;BME280;27734;47.028;28.820;2023-06-22T03:08:37;100789.02;;;18.66;83.02
42067;BME280;27734;47.028;28.820;2023-06-22T03:11:08;100786.37;;;18.68;82.74
42067;BME280;27734;47.028;28.820;2023-06-22T03:13:40;100786.37;;;18.69;82.86
42067;BME280;27734;47.028;28.820;2023-06-22T03:16:11;100787.33;;;18.75;83.09
42067;BME280;27734;47.028;28.820;2023-06-22T03:18:43;100781.12;;;18.79;82.51
42067;BME280;27734;47.028;28.820;2023-06-22T03:21:16;100774.95;;;18.81;82.90
42067;BME280;27734;47.028;28.820;2023-06-22T03:23:47;100768.83;;;18.87;83.16
42067;BME280;27734;47.028;28.820;2023-06-22T03:26:19;100778.56;;;18.90;83.23
42067;BME280;27734;47.028;28.820;2023-06-22T03:28:51;100775.94;;;18.94;83.54
42067;BME280;27734;47.028;28.820;2023-06-22T03:31:22;100775.09;;;18.98;82.77
42067;BME280;27734;47.028;28.820;2023-06-22T03:33:53;100769.78;;;19.01;82.76
42067;BME280;27734;47.028;28.820;2023-06-22T03:36:26;100773.32;;;19.02;83.33
42067;BME280;27734;47.028;28.820;2023-06-22T03:38:58;100764.47;;;19.03;83.54
42067;BME280;27734;47.028;28.820;2023-06-22T03:41:29;100771.56;;;19.07;83.36
42067;BME280;27734;47.028;28.820;2023-06-22T03:44:01;100763.60;;;19.10;83.39
42067;BME280;27734;47.028;28.820;2023-06-22T03:46:32;100769.86;;;19.15;82.97
42067;BME280;27734;47.028;28.820;2023-06-22T03:49:03;100771.63;;;19.19;83.54
42067;BME280;27734;47.028;28.820;2023-06-22T03:51:34;100769.89;;;19.21;83.34
42067;BME280;27734;47.028;28.820;2023-06-22T03:54:06;100768.98;;;19.21;83.05
42067;BME280;27734;47.028;28.820;2023-06-22T03:56:37;100763.67;;;19.24;83.15
42067;BME280;27734;47.028;28.820;2023-06-22T03:59:08;100757.48;;;19.28;83.57
42067;BME280;27734;47.028;28.820;2023-06-22T04:01:39;100764.61;;;19.32;83.09
42067;BME280;27734;47.028;28.820;2023-06-22T04:04:11;100756.66;;;19.40;83.53
42067;BME280;27734;47.028;28.820;2023-06-22T04:06:42;100750.44;;;19.44;83.17
42067;BME280;27734;47.028;28.820;2023-06-22T04:09:13;100764.64;;;19.49;82.91
42067;BME280;27734;47.028;28.820;2023-06-22T04:11:45;100761.12;;;19.55;82.75
42067;BME280;27734;47.028;28.820;2023-06-22T04:14:16;100759.36;;;19.63;83.14
42067;BME280;27734;47.028;28.820;2023-06-22T04:16:47;100754.96;;;19.68;82.68
42067;BME280;27734;47.028;28.820;2023-06-22T04:19:18;100753.23;;;19.77;83.71
42067;BME280;27734;47.028;28.820;2023-06-22T04:21:49;100758.57;;;19.84;82.85
42067;BME280;27734;47.028;28.820;2023-06-22T04:24:21;100768.36;;;19.95;83.58
42067;BME280;27734;47.028;28.820;2023-06-22T04:26:52;100762.14;;;20.03;82.65
42067;BME280;27734;47.028;28.820;2023-06-22T04:29:24;100763.02;;;20.13;82.67
42067;BME280;27734;47.028;28.820;2023-06-22T04:31:59;100758.61;;;20.23;82.97
42067;BME280;27734;47.028;28.820;2023-06-22T04:34:36;100763.94;;;20.31;82.24
42067;BME280;27734;47.028;28.820;2023-06-22T04:37:08;100766.61;;;20.38;82.55
42067;BME280;27734;47.028;28.820;2023-06-22T04:39:39;100775.48;;;20.45;82.09
42067;BME280;27734;47.028;28.820;2023-06-22T04:42:16;100768.36;;;20.52;82.62
42067;BME280;27734;47.028;28.820;2023-06-22T04:44:50;100770.14;;;20.59;82.76
42067;BME280;27734;47.028;28.820;2023-06-22T04:47:21;100779.91;;;20.66;82.10
42067;BME280;27734;47.028;28.820;2023-06-22T04:49:53;100777.23;;;20.75;81.56
42067;BME280;27734;47.028;28.820;2023-06-22T04:52:24;100782.55;;;20.85;82.34
42067;BME280;27734;47.028;28.820;2023-06-22T04:54:56;100786.12;;;20.91;82.10
42067;BME280;27734;47.028;28.820;2023-06-22T04:57:29;100779.86;;;20.98;81.89
42067;BME280;27734;47.028;28.820;2023-06-22T05:00:03;100787.84;;;21.06;81.36
42067;BME280;27734;47.028;28.820;2023-06-22T05:02:44;100796.70;;;21.11;81.36
42067;BME280;27734;47.028;28.820;2023-06-22T05:05:16;100794.03;;;21.14;81.60
42067;BME280;27734;47.028;28.820;2023-06-22T05:07:50;100792.27;;;21.18;80.68
42067;BME280;27734;47.028;28.820;2023-06-22T05:10:22;100793.11;;;21.26;81.29
42067;BME280;27734;47.028;28.820;2023-06-22T05:12:53;100792.22;;;21.32;81.18
42067;BME280;27734;47.028;28.820;2023-06-22T05:15:25;100795.72;;;21.42;81.44
42067;BME280;27734;47.028;28.820;2023-06-22T05:18:00;100798.39;;;21.51;80.39
42067;BME280;27734;47.028;28.820;2023-06-22T05:20:35;100795.67;;;21.62;80.52
42067;BME280;27734;47.028;28.820;2023-06-22T05:23:09;100795.63;;;21.71;80.59
42067;BME280;27734;47.028;28.820;2023-06-22T05:25:41;100792.00;;;21.78;80.50
42067;BME280;27734;47.028;28.820;2023-06-22T05:28:12;100803.55;;;21.86;79.91
42067;BME280;27734;47.028;28.820;2023-06-22T05:30:43;100795.48;;;21.96;80.26
42067;BME280;27734;47.028;28.820;2023-06-22T05:33:15;100800.75;;;22.06;80.04
42067;BME280;27734;47.028;28.820;2023-06-22T05:35:46;100801.55;;;22.18;79.26
42067;BME280;27734;47.028;28.820;2023-06-22T05:38:17;100794.34;;;22.28;79.21
42067;BME280;27734;47.028;28.820;2023-06-22T05:40:49;100794.30;;;22.37;79.50
42067;BME280;27734;47.028;28.820;2023-06-22T05:43:23;100791.55;;;22.46;78.80
42067;BME280;27734;47.028;28.820;2023-06-22T05:45:55;100791.47;;;22.55;78.87
42067;BME280;27734;47.028;28.820;2023-06-22T05:48:28;100783.38;;;22.63;78.51
42067;BME280;27734;47.028;28.820;2023-06-22T05:50:59;100785.97;;;22.72;78.42
42067;BME280;27734;47.028;28.820;2023-06-22T05:53:31;100784.95;;;22.83;78.34
42067;BME280;27734;47.028;28.820;2023-06-22T05:56:02;100791.99;;;22.93;78.06
42067;BME280;27734;47.028;28.820;2023-06-22T05:58:34;100788.36;;;23.00;77.73
42067;BME280;27734;47.028;28.820;2023-06-22T06:01:06;100783.81;;;23.07;77.75
42067;BME280;27734;47.028;28.820;2023-06-22T06:03:38;100784.62;;;23.17;77.41
42067;BME280;27734;47.028;28.820;2023-06-22T06:06:11;100790.73;;;23.26;77.14
42067;BME280;27734;47.028;28.820;2023-06-22T06:08:45;100795.98;;;23.36;77.04
42067;BME280;27734;47.028;28.820;2023-06-22T06:11:18;100787.83;;;23.45;76.70
42067;BME280;27734;47.028;28.820;2023-06-22T06:13:55;100791.30;;;23.55;76.62
42067;BME280;27734;47.028;28.820;2023-06-22T06:16:27;100793.88;;;23.62;76.21
42067;BME280;27734;47.028;28.820;2023-06-22T06:19:01;100795.55;;;23.69;76.06
42067;BME280;27734;47.028;28.820;2023-06-22T06:21:33;100791.84;;;23.80;75.81
42067;BME280;27734;47.028;28.820;2023-06-22T06:24:05;100787.28;;;23.88;75.60
42067;BME280;27734;47.028;28.820;2023-06-22T06:26:47;100788.92;;;23.98;75.25
42067;BME280;27734;47.028;28.820;2023-06-22T06:29:22;100797.66;;;24.11;74.60
42067;BME280;27734;47.028;28.820;2023-06-22T06:31:55;100794.83;;;24.20;74.38
42067;BME280;27734;47.028;28.820;2023-06-22T06:34:27;100802.66;;;24.34;74.18
42067;BME280;27734;47.028;28.820;2023-06-22T06:36:59;100800.70;;;24.44;73.54
42067;BME280;27734;47.028;28.820;2023-06-22T06:39:31;100801.41;;;24.54;73.77
42067;BME280;27734;47.028;28.820;2023-06-22T06:42:05;100803.97;;;24.63;73.25
42067;BME280;27734;47.028;28.820;2023-06-22T06:44:40;100804.69;;;24.74;72.73
42067;BME280;27734;47.028;28.820;2023-06-22T06:47:12;100807.14;;;24.85;72.12
42067;BME280;27734;47.028;28.820;2023-06-22T06:49:47;100797.14;;;24.95;71.46
42067;BME280;27734;47.028;28.820;2023-06-22T06:52:26;100789.75;;;25.06;70.67
42067;BME280;27734;47.028;28.820;2023-06-22T06:54:58;100796.54;;;25.26;70.53
42067;BME280;27734;47.028;28.820;2023-06-22T06:57:30;100795.45;;;25.36;70.77
42067;BME280;27734;47.028;28.820;2023-06-22T07:00:02;100797.09;;;25.43;69.99
42067;BME280;27734;47.028;28.820;2023-06-22T07:02:41;100794.95;;;25.59;69.53
42067;BME280;27734;47.028;28.820;2023-06-22T07:05:13;100792.77;;;25.77;70.01
42067;BME280;27734;47.028;28.820;2023-06-22T07:07:47;100792.45;;;25.91;67.95
42067;BME280;27734;47.028;28.820;2023-06-22T07:10:20;100794.09;;;25.99;67.30
42067;BME280;27734;47.028;28.820;2023-06-22T07:12:52;100792.94;;;26.10;67.19
42067;BME280;27734;47.028;28.820;2023-06-22T07:15:23;100786.38;;;26.22;67.02
42067;BME280;27734;47.028;28.820;2023-06-22T07:18:01;100790.63;;;26.32;66.88
42067;BME280;27734;47.028;28.820;2023-06-22T07:20:33;100794.59;;;26.51;65.62
42067;BME280;27734;47.028;28.820;2023-06-22T07:23:04;100788.85;;;26.67;65.70
42067;BME280;27734;47.028;28.820;2023-06-22T07:25:36;100784.05;;;26.78;64.74
42067;BME280;27734;47.028;28.820;2023-06-22T07:28:09;100778.91;;;27.02;64.09
42067;BME280;27734;47.028;28.820;2023-06-22T07:30:43;100783.64;;;27.25;63.59
42067;BME280;27734;47.028;28.820;2023-06-22T07:33:14;100775.87;;;27.46;62.86
42067;BME280;27734;47.028;28.820;2023-06-22T07:35:47;100777.23;;;27.60;62.32
42067;BME280;27734;47.028;28.820;2023-06-22T07:38:21;100775.94;;;27.74;62.11
42067;BME280;27734;47.028;28.820;2023-06-22T07:40:59;100778.11;;;27.91;61.04
42067;BME280;27734;47.028;28.820;2023-06-22T07:43:31;100773.80;;;28.13;60.91
42067;BME280;27734;47.028;28.820;2023-06-22T07:46:03;100775.83;;;28.33;59.02
42067;BME280;27734;47.028;28.820;2023-06-22T07:48:38;100782.23;;;28.56;59.33
42067;BME280;27734;47.028;28.820;2023-06-22T07:51:13;100780.05;;;28.69;57.68
42067;BME280;27734;47.028;28.820;2023-06-22T07:53:45;100778.33;;;28.66;57.69
42067;BME280;27734;47.028;28.820;2023-06-22T07:56:22;100782.48;;;28.77;57.85
42067;BME280;27734;47.028;28.820;2023-06-22T07:58:54;100772.05;;;28.91;57.45
42067;BME280;27734;47.028;28.820;2023-06-22T08:01:28;100775.34;;;28.99;56.38
42067;BME280;27734;47.028;28.820;2023-06-22T08:03:59;100769.61;;;29.09;55.96
42067;BME280;27734;47.028;28.820;2023-06-22T08:06:38;100768.08;;;29.27;55.39
42067;BME280;27734;47.028;28.820;2023-06-22T08:09:12;100759.56;;;29.37;55.35
42067;BME280;27734;47.028;28.820;2023-06-22T08:11:45;100760.95;;;29.48;53.74
42067;BME280;27734;47.028;28.820;2023-06-22T08:14:21;100764.58;;;29.70;53.13
42067;BME280;27734;47.028;28.820;2023-06-22T08:16:54;100770.34;;;29.85;53.04
42067;BME280;27734;47.028;28.820;2023-06-22T08:19:28;100773.36;;;29.99;52.77
42067;BME280;27734;47.028;28.820;2023-06-22T08:22:01;100770.70;;;30.20;52.54
42067;BME280;27734;47.028;28.820;2023-06-22T08:24:32;100781.78;;;30.36;51.15
42067;BME280;27734;47.028;28.820;2023-06-22T08:27:05;100772.27;;;30.47;50.23
42067;BME280;27734;47.028;28.820;2023-06-22T08:29:38;100776.95;;;30.44;49.35
42067;BME280;27734;47.028;28.820;2023-06-22T08:32:12;100788.25;;;30.54;49.89
42067;BME280;27734;47.028;28.820;2023-06-22T08:34:43;100774.78;;;30.73;49.34
42067;BME280;27734;47.028;28.820;2023-06-22T08:37:15;100777.69;;;30.68;47.67
42067;BME280;27734;47.028;28.820;2023-06-22T08:39:46;100780.63;;;30.84;47.89
42067;BME280;27734;47.028;28.820;2023-06-22T08:42:18;100774.88;;;31.12;47.61
42067;BME280;27734;47.028;28.820;2023-06-22T08:44:49;100772.62;;;31.41;46.81
42067;BME280;27734;47.028;28.820;2023-06-22T08:47:21;100768.67;;;31.48;46.20
42067;BME280;27734;47.028;28.820;2023-06-22T08:49:53;100779.52;;;31.48;45.89
42067;BME280;27734;47.028;28.820;2023-06-22T08:52:26;100761.63;;;31.25;45.85
42067;BME280;27734;47.028;28.820;2023-06-22T08:55:00;100772.89;;;31.16;45.55
42067;BME280;27734;47.028;28.820;2023-06-22T08:57:32;100759.34;;;31.16;45.00
42067;BME280;27734;47.028;28.820;2023-06-22T09:00:05;100756.78;;;31.32;45.22
42067;BME280;27734;47.028;28.820;2023-06-22T09:02:42;100762.92;;;31.56;44.68
42067;BME280;27734;47.028;28.820;2023-06-22T09:05:14;100766.48;;;31.76;44.85
42067;BME280;27734;47.028;28.820;2023-06-22T09:07:46;100765.17;;;31.84;43.17
42067;BME280;27734;47.028;28.820;2023-06-22T09:10:18;100765.24;;;31.83;43.42
42067;BME280;27734;47.028;28.820;2023-06-22T09:12:49;100761.36;;;31.88;43.16
42067;BME280;27734;47.028;28.820;2023-06-22T09:15:27;100769.27;;;31.93;42.78
42067;BME280;27734;47.028;28.820;2023-06-22T09:17:59;100767.92;;;32.02;43.02
42067;BME280;27734;47.028;28.820;2023-06-22T09:20:36;100765.20;;;32.02;42.65
42067;BME280;27734;47.028;28.820;2023-06-22T09:23:08;100765.41;;;32.16;42.13
42067;BME280;27734;47.028;28.820;2023-06-22T09:25:42;100764.48;;;32.35;41.88
42067;BME280;27734;47.028;28.820;2023-06-22T09:28:18;100761.14;;;32.47;41.18
42067;BME280;27734;47.028;28.820;2023-06-22T09:30:49;100760.66;;;32.56;40.96
42067;BME280;27734;47.028;28.820;2023-06-22T09:33:21;100768.65;;;32.59;40.93
42067;BME280;27734;47.028;28.820;2023-06-22T09:35:54;100772.19;;;32.61;40.21
42067;BME280;27734;47.028;28.820;2023-06-22T09:38:26;100764.12;;;32.77;40.46
42067;BME280;27734;47.028;28.820;2023-06-22T09:40:57;100755.41;;;32.88;40.02
42067;BME280;27734;47.028;28.820;2023-06-22T09:43:31;100761.13;;;33.00;39.26
42067;BME280;27734;47.028;28.820;2023-06-22T09:46:05;100762.90;;;33.01;39.26
42067;BME280;27734;47.028;28.820;2023-06-22T09:48:41;100759.53;;;32.95;38.50
42067;BME280;27734;47.028;28.820;2023-06-22T09:51:13;100764.67;;;32.84;38.43
42067;BME280;27734;47.028;28.820;2023-06-22T09:53:44;100757.17;;;32.72;38.66
42067;BME280;27734;47.028;28.820;2023-06-22T09:56:17;100763.22;;;32.59;38.47
42067;BME280;27734;47.028;28.820;2023-06-22T09:58:49;100760.03;;;32.51;38.49
42067;BME280;27734;47.028;28.820;2023-06-22T10:01:22;100760.90;;;32.52;37.85
42067;BME280;27734;47.028;28.820;2023-06-22T10:03:55;100759.24;;;32.49;37.86
42067;BME280;27734;47.028;28.820;2023-06-22T10:06:28;100761.95;;;32.49;37.98
42067;BME280;27734;47.028;28.820;2023-06-22T10:09:00;100767.55;;;32.46;37.76
42067;BME280;27734;47.028;28.820;2023-06-22T10:11:41;100756.10;;;32.39;37.99
42067;BME280;27734;47.028;28.820;2023-06-22T10:14:17;100760.34;;;32.28;37.81
42067;BME280;27734;47.028;28.820;2023-06-22T10:16:51;100751.28;;;32.10;37.91
42067;BME280;27734;47.028;28.820;2023-06-22T10:19:23;100753.71;;;31.97;38.08
42067;BME280;27734;47.028;28.820;2023-06-22T10:21:54;100752.55;;;31.83;37.96
42067;BME280;27734;47.028;28.820;2023-06-22T10:24:25;100748.63;;;31.71;38.16
42067;BME280;27734;47.028;28.820;2023-06-22T10:26:57;100745.30;;;31.65;38.00
42067;BME280;27734;47.028;28.820;2023-06-22T10:29:28;100746.65;;;31.56;37.93
42067;BME280;27734;47.028;28.820;2023-06-22T10:32:00;100746.27;;;31.45;38.22
42067;BME280;27734;47.028;28.820;2023-06-22T10:34:31;100744.63;;;31.22;37.96
42067;BME280;27734;47.028;28.820;2023-06-22T10:37:03;100742.28;;;31.14;38.41
42067;BME280;27734;47.028;28.820;2023-06-22T10:39:35;100736.62;;;30.99;37.99
42067;BME280;27734;47.028;28.820;2023-06-22T10:42:09;100733.61;;;30.85;38.37
42067;BME280;27734;47.028;28.820;2023-06-22T10:44:47;100735.72;;;30.78;38.45
42067;BME280;27734;47.028;28.820;2023-06-22T10:47:20;100734.09;;;30.74;38.27
42067;BME280;27734;47.028;28.820;2023-06-22T10:49:54;100728.47;;;30.79;38.27
42067;BME280;27734;47.028;28.820;2023-06-22T10:52:26;100724.09;;;30.97;38.18
42067;BME280;27734;47.028;28.820;2023-06-22T10:54:59;100725.50;;;31.06;38.13
42067;BME280;27734;47.028;28.820;2023-06-22T10:57:32;100727.75;;;31.15;38.10
42067;BME280;27734;47.028;28.820;2023-06-22T11:00:11;100731.30;;;31.17;37.96
42067;BME280;27734;47.028;28.820;2023-06-22T11:02:49;100725.12;;;31.13;38.14
42067;BME280;27734;47.028;28.820;2023-06-22T11:05:23;100721.33;;;31.17;37.97
42067;BME280;27734;47.028;28.820;2023-06-22T11:07:53;100715.47;;;31.27;37.17
42067;BME280;27734;47.028;28.820;2023-06-22T11:10:25;100715.18;;;31.33;37.78
42067;BME280;27734;47.028;28.820;2023-06-22T11:12:58;100711.23;;;31.40;37.51
42067;BME280;27734;47.028;28.820;2023-06-22T11:15:30;100708.08;;;31.49;37.61
42067;BME280;27734;47.028;28.820;2023-06-22T11:18:01;100705.90;;;31.58;37.69
42067;BME280;27734;47.028;28.820;2023-06-22T11:20:35;100703.68;;;31.66;37.60
42067;BME280;27734;47.028;28.820;2023-06-22T11:23:09;100700.81;;;31.69;37.48
42067;BME280;27734;47.028;28.820;2023-06-22T11:25:43;100706.24;;;31.69;37.32
42067;BME280;27734;47.028;28.820;2023-06-22T11:28:17;100705.37;;;31.68;36.77
42067;BME280;27734;47.028;28.820;2023-06-22T11:30:49;100702.28;;;31.76;36.93
42067;BME280;27734;47.028;28.820;2023-06-22T11:33:38;100699.19;;;31.84;36.60
42067;BME280;27734;47.028;28.820;2023-06-22T11:36:32;100706.05;;;31.91;36.70
42067;BME280;27734;47.028;28.820;2023-06-22T11:39:13;100700.90;;;32.04;36.84
42067;BME280;27734;47.028;28.820;2023-06-22T11:41:50;100706.37;;;32.21;36.32
42067;BME280;27734;47.028;28.820;2023-06-22T11:44:50;100696.77;;;32.32;36.11
42067;BME280;27734;47.028;28.820;2023-06-22T11:47:25;100688.14;;;32.41;35.77
42067;BME280;27734;47.028;28.820;2023-06-22T11:50:01;100693.81;;;32.36;35.77
42067;BME280;27734;47.028;28.820;2023-06-22T11:55:44;100676.30;;;32.59;36.01
42067;BME280;27734;47.028;28.820;2023-06-22T11:58:18;100671.69;;;32.61;35.23
42067;BME280;27734;47.028;28.820;2023-06-22T12:00:58;100669.75;;;32.64;35.08
42067;BME280;27734;47.028;28.820;2023-06-22T12:03:41;100668.63;;;32.68;35.20
42067;BME280;27734;47.028;28.820;2023-06-22T12:06:17;100657.19;;;32.78;35.19
42067;BME280;27734;47.028;28.820;2023-06-22T12:08:49;100658.36;;;32.90;34.99
42067;BME280;27734;47.028;28.820;2023-06-22T12:11:35;100656.26;;;32.95;34.86
42067;BME280;27734;47.028;28.820;2023-06-22T12:14:20;100651.33;;;32.86;34.65
42067;BME280;27734;47.028;28.820;2023-06-22T12:17:03;100652.40;;;32.84;34.90
42067;BME280;27734;47.028;28.820;2023-06-22T12:19:39;100649.59;;;32.85;34.29
42067;BME280;27734;47.028;28.820;2023-06-22T12:22:13;100644.08;;;32.87;33.97
42067;BME280;27734;47.028;28.820;2023-06-22T12:24:52;100644.69;;;32.92;33.81
42067;BME280;27734;47.028;28.820;2023-06-22T12:27:33;100639.44;;;33.05;33.97
42067;BME280;27734;47.028;28.820;2023-06-22T12:30:22;100644.99;;;33.19;34.00
42067;BME280;27734;47.028;28.820;2023-06-22T12:32:56;100642.10;;;33.22;33.76
42067;BME280;27734;47.028;28.820;2023-06-22T12:35:28;100644.82;;;33.22;33.00
42067;BME280;27734;47.028;28.820;2023-06-22T12:38:04;100635.89;;;33.20;33.61
42067;BME280;27734;47.028;28.820;2023-06-22T12:40:40;100638.52;;;33.22;33.05
42067;BME280;27734;47.028;28.820;2023-06-22T12:43:13;100632.44;;;33.17;32.70
42067;BME280;27734;47.028;28.820;2023-06-22T12:45:45;100634.30;;;33.16;32.85
42067;BME280;27734;47.028;28.820;2023-06-22T12:48:18;100639.81;;;33.14;32.98
42067;BME280;27734;47.028;28.820;2023-06-22T12:50:51;100633.16;;;33.20;32.95
42067;BME280;27734;47.028;28.820;2023-06-22T12:53:33;100638.52;;;33.22;32.98
42067;BME280;27734;47.028;28.820;2023-06-22T12:56:30;100639.38;;;33.22;32.96
42067;BME280;27734;47.028;28.820;2023-06-22T12:59:16;100635.89;;;33.20;33.04
42067;BME280;27734;47.028;28.820;2023-06-22T13:02:01;100625.97;;;33.19;32.88
42067;BME280;27734;47.028;28.820;2023-06-22T13:04:42;100621.66;;;33.15;32.75
42067;BME280;27734;47.028;28.820;2023-06-22T13:07:16;100630.67;;;33.15;32.65
42067;BME280;27734;47.028;28.820;2023-06-22T13:09:48;100628.22;;;33.11;32.30
42067;BME280;27734;47.028;28.820;2023-06-22T13:12:22;100621.56;;;33.01;32.28
42067;BME280;27734;47.028;28.820;2023-06-22T13:15:00;100622.44;;;33.01;32.35
42067;BME280;27734;47.028;28.820;2023-06-22T13:17:35;100624.89;;;33.06;32.33